createdAt,value
2022-08-03T00:00:43.420Z,26.00
2022-08-03T00:03:12.630Z,26.10
2022-08-03T00:06:04.034Z,26.10
2022-08-03T00:08:34.130Z,26.10
2022-08-03T00:11:09.636Z,26.20
2022-08-03T00:13:38.880Z,26.20
2022-08-03T00:16:08.113Z,26.30
2022-08-03T00:18:37.127Z,26.30
2022-08-03T00:21:07.142Z,26.40
2022-08-03T00:23:51.312Z,26.40
2022-08-03T00:26:23.055Z,26.50
2022-08-03T00:28:52.765Z,26.50
2022-08-03T00:31:33.930Z,26.60
2022-08-03T00:34:11.489Z,26.70
2022-08-03T00:36:42.066Z,26.70
2022-08-03T00:39:11.557Z,26.80
2022-08-03T00:41:40.903Z,26.80
2022-08-03T00:44:10.256Z,26.90
2022-08-03T00:46:39.592Z,26.90
2022-08-03T00:49:09.373Z,27.00
2022-08-03T00:51:38.817Z,27.00
2022-08-03T00:54:08.173Z,27.10
2022-08-03T00:56:39.856Z,27.10
2022-08-03T00:59:31.978Z,27.10
2022-08-03T01:02:01.402Z,27.20
2022-08-03T01:04:30.706Z,27.20
2022-08-03T01:07:15.269Z,27.30
2022-08-03T01:09:55.527Z,27.30
2022-08-03T01:13:59.170Z,27.40
2022-08-03T01:16:14.701Z,27.50
2022-08-03T01:18:54.979Z,27.70
2022-08-03T01:21:33.351Z,27.80
2022-08-03T01:24:47.179Z,27.80
2022-08-03T01:27:35.895Z,27.90
2022-08-03T01:30:09.811Z,28.00
2022-08-03T01:32:59.007Z,28.00
2022-08-03T01:36:10.706Z,28.10
2022-08-03T01:38:46.072Z,28.10
2022-08-03T01:41:21.846Z,28.10
2022-08-03T01:44:26.663Z,28.00
2022-08-03T01:46:48.909Z,28.10
2022-08-03T01:49:19.589Z,28.10
2022-08-03T01:52:04.587Z,28.20
2022-08-03T01:54:42.367Z,28.20
2022-08-03T01:57:12.786Z,28.30
2022-08-03T01:59:43.608Z,28.30
2022-08-03T02:02:32.955Z,28.40
2022-08-03T02:05:10.840Z,28.50
2022-08-03T02:07:43.569Z,28.60
2022-08-03T02:10:34.734Z,28.70
2022-08-03T02:13:08.461Z,29.00
2022-08-03T02:15:39.845Z,29.10
2022-08-03T02:18:11.863Z,29.30
2022-08-03T02:20:42.170Z,29.40
2022-08-03T02:23:11.664Z,29.50
2022-08-03T02:25:54.586Z,29.80
2022-08-03T02:28:28.244Z,29.90
2022-08-03T02:30:58.721Z,30.00
2022-08-03T02:33:34.700Z,30.10
2022-08-03T02:36:05.938Z,30.10
2022-08-03T02:38:38.556Z,30.20
2022-08-03T02:41:15.090Z,30.30
2022-08-03T02:44:06.558Z,30.40
2022-08-03T02:46:41.232Z,30.50
2022-08-03T02:49:49.574Z,30.70
2022-08-03T02:52:03.393Z,30.80
2022-08-03T02:54:33.716Z,30.90
2022-08-03T02:57:04.039Z,31.10
2022-08-03T02:59:33.942Z,31.20
2022-08-03T03:02:05.099Z,31.30
2022-08-03T03:04:35.450Z,31.30
2022-08-03T03:07:05.818Z,31.30
2022-08-03T03:09:40.172Z,31.40
2022-08-03T03:12:13.167Z,31.40
2022-08-03T03:14:43.193Z,31.40
2022-08-03T03:17:15.761Z,31.30
2022-08-03T03:19:46.741Z,31.30
2022-08-03T03:22:17.226Z,31.40
2022-08-03T03:24:48.367Z,31.50
2022-08-03T03:27:17.985Z,31.60
2022-08-03T03:29:47.621Z,31.60
2022-08-03T03:32:20.373Z,31.70
2022-08-03T03:34:50.104Z,31.90
2022-08-03T03:37:20.379Z,32.00
2022-08-03T03:39:49.730Z,32.20
2022-08-03T03:42:18.907Z,32.40
2022-08-03T03:44:48.113Z,32.60
2022-08-03T03:47:17.355Z,32.70
2022-08-03T03:50:01.849Z,32.70
2022-08-03T03:52:31.112Z,32.80
2022-08-03T03:55:01.305Z,32.80
2022-08-03T03:57:31.221Z,32.70
2022-08-03T04:00:02.135Z,32.60
2022-08-03T04:02:55.815Z,32.30
2022-08-03T04:05:48.704Z,32.00
2022-08-03T04:09:00.023Z,31.80
2022-08-03T04:11:41.060Z,31.70
2022-08-03T04:14:34.187Z,31.70
2022-08-03T04:17:08.803Z,31.80
2022-08-03T04:19:51.457Z,32.00
2022-08-03T04:22:25.671Z,32.20
2022-08-03T04:25:19.321Z,32.40
2022-08-03T04:28:08.063Z,32.50
2022-08-03T04:30:48.648Z,32.60
2022-08-03T04:33:19.010Z,32.90
2022-08-03T04:36:01.276Z,33.00
2022-08-03T04:38:38.286Z,33.10
2022-08-03T04:41:08.101Z,33.30
2022-08-03T04:43:40.706Z,33.40
2022-08-03T04:46:11.637Z,33.40
2022-08-03T04:48:44.755Z,33.50
2022-08-03T04:51:14.851Z,33.60
2022-08-03T04:53:45.699Z,33.70
2022-08-03T04:56:14.873Z,33.80
2022-08-03T04:58:48.001Z,33.90
2022-08-03T05:01:18.747Z,33.80
2022-08-03T05:03:48.318Z,33.80
2022-08-03T05:06:17.466Z,33.80
2022-08-03T05:08:47.071Z,33.80
2022-08-03T05:11:18.911Z,33.90
2022-08-03T05:13:48.710Z,34.00
2022-08-03T05:16:18.175Z,34.00
2022-08-03T05:18:47.296Z,34.20
2022-08-03T05:21:19.740Z,34.30
2022-08-03T05:23:49.166Z,34.40
2022-08-03T05:26:18.662Z,34.60
2022-08-03T05:28:50.998Z,34.70
2022-08-03T05:31:21.377Z,34.70
2022-08-03T05:33:50.872Z,34.60
2022-08-03T05:36:20.197Z,34.60
2022-08-03T05:38:49.610Z,34.60
2022-08-03T05:41:21.813Z,34.60
2022-08-03T05:43:55.100Z,34.50
2022-08-03T05:46:24.947Z,34.50
2022-08-03T05:48:54.477Z,34.40
2022-08-03T05:51:23.847Z,34.50
2022-08-03T05:53:53.403Z,34.50
2022-08-03T05:56:26.871Z,34.50
2022-08-03T05:58:56.314Z,34.30
2022-08-03T06:01:26.136Z,34.20
2022-08-03T06:03:55.539Z,34.00
2022-08-03T06:06:25.367Z,33.90
2022-08-03T06:08:56.668Z,33.90
2022-08-03T06:11:26.166Z,34.00
2022-08-03T06:13:55.449Z,34.10
2022-08-03T06:16:24.788Z,34.30
2022-08-03T06:18:54.097Z,34.40
2022-08-03T06:21:23.440Z,34.40
2022-08-03T06:23:56.500Z,34.50
2022-08-03T06:26:30.000Z,34.70
2022-08-03T06:28:59.376Z,34.80
2022-08-03T06:31:32.757Z,35.00
2022-08-03T06:34:34.016Z,35.20
2022-08-03T06:37:01.699Z,35.20
2022-08-03T06:39:31.821Z,35.10
2022-08-03T06:42:01.129Z,35.10
2022-08-03T06:44:30.508Z,35.20
2022-08-03T06:47:00.028Z,35.10
2022-08-03T06:49:29.566Z,35.20
2022-08-03T06:52:37.097Z,35.30
2022-08-03T06:54:50.020Z,35.40
2022-08-03T06:57:20.214Z,35.50
2022-08-03T07:00:11.051Z,35.60
2022-08-03T07:02:38.921Z,35.70
2022-08-03T07:05:09.476Z,35.90
2022-08-03T07:07:39.697Z,36.00
2022-08-03T07:10:10.220Z,36.00
2022-08-03T07:12:52.805Z,35.80
2022-08-03T07:15:53.706Z,35.60
2022-08-03T07:18:15.967Z,35.50
2022-08-03T07:20:45.412Z,35.40
2022-08-03T07:23:16.090Z,35.50
2022-08-03T07:25:48.675Z,35.40
2022-08-03T07:28:18.067Z,35.40
2022-08-03T07:30:47.380Z,35.40
2022-08-03T07:33:16.782Z,35.30
2022-08-03T07:35:46.069Z,35.20
2022-08-03T07:38:15.459Z,35.00
2022-08-03T07:40:46.404Z,34.80
2022-08-03T07:43:15.971Z,34.70
2022-08-03T07:45:45.424Z,34.60
2022-08-03T07:48:14.801Z,34.40
2022-08-03T07:50:44.138Z,34.30
2022-08-03T07:53:13.765Z,34.20
2022-08-03T07:55:43.540Z,34.30
2022-08-03T07:58:22.065Z,34.30
2022-08-03T08:00:54.183Z,34.30
2022-08-03T08:03:23.582Z,34.30
2022-08-03T08:05:52.840Z,34.30
2022-08-03T08:08:22.775Z,34.30
2022-08-03T08:10:58.519Z,34.30
2022-08-03T08:13:28.496Z,34.30
2022-08-03T08:15:57.833Z,34.30
2022-08-03T08:18:27.246Z,34.40
2022-08-03T08:20:57.045Z,34.30
2022-08-03T08:23:43.453Z,34.20
2022-08-03T08:26:14.380Z,34.10
2022-08-03T08:28:43.582Z,34.00
2022-08-03T08:31:12.742Z,33.80
2022-08-03T08:34:03.032Z,33.70
2022-08-03T08:36:30.988Z,33.50
2022-08-03T08:39:00.128Z,33.40
2022-08-03T08:41:32.334Z,33.30
2022-08-03T08:44:01.808Z,33.20
2022-08-03T08:46:34.819Z,33.00
2022-08-03T08:49:05.067Z,33.00
2022-08-03T08:51:52.742Z,32.80
2022-08-03T08:54:33.727Z,32.60
2022-08-03T08:57:21.107Z,32.40
2022-08-03T08:59:58.035Z,32.20
2022-08-03T09:02:30.724Z,32.00
2022-08-03T09:05:05.341Z,31.90
2022-08-03T09:07:39.050Z,31.70
2022-08-03T09:10:12.948Z,31.50
2022-08-03T09:12:50.586Z,31.30
2022-08-03T09:15:27.180Z,31.20
2022-08-03T09:17:58.417Z,31.20
2022-08-03T09:20:29.986Z,31.10
2022-08-03T09:23:14.064Z,31.20
2022-08-03T09:26:00.478Z,31.20
2022-08-03T09:29:01.756Z,31.20
2022-08-03T09:32:01.329Z,31.20
2022-08-03T09:34:31.413Z,31.30
2022-08-03T09:37:00.781Z,31.40
2022-08-03T09:39:41.332Z,31.40
2022-08-03T09:42:23.820Z,31.40
2022-08-03T09:44:54.080Z,31.40
2022-08-03T09:47:34.718Z,31.50
2022-08-03T09:50:10.740Z,31.50
2022-08-03T09:52:52.340Z,31.50
2022-08-03T09:56:32.874Z,31.50
2022-08-03T09:58:15.422Z,31.50
2022-08-03T10:01:05.235Z,31.50
2022-08-03T10:04:03.096Z,31.40
2022-08-03T10:06:28.810Z,31.40
2022-08-03T10:09:10.107Z,31.20
2022-08-03T10:11:42.297Z,31.00
2022-08-03T10:14:24.572Z,30.70
2022-08-03T10:16:53.947Z,30.40
2022-08-03T10:19:23.436Z,29.90
2022-08-03T10:21:59.585Z,29.40
2022-08-03T10:24:31.579Z,28.90
2022-08-03T10:27:09.429Z,28.40
2022-08-03T10:29:49.629Z,27.90
2022-08-03T10:32:27.810Z,27.40
2022-08-03T10:35:20.859Z,27.00
2022-08-03T10:37:58.905Z,26.70
2022-08-03T10:40:48.032Z,26.40
2022-08-03T10:43:38.364Z,26.20
2022-08-03T10:46:09.680Z,26.00
2022-08-03T10:48:39.722Z,25.80
2022-08-03T10:51:09.234Z,25.70
2022-08-03T10:53:54.322Z,25.60
2022-08-03T10:56:54.982Z,25.50
2022-08-03T10:59:49.550Z,25.50
2022-08-03T11:02:19.072Z,25.50
2022-08-03T11:04:48.507Z,25.40
2022-08-03T11:07:26.038Z,25.40
2022-08-03T11:09:57.765Z,25.40
2022-08-03T11:12:34.906Z,25.50
2022-08-03T11:15:10.206Z,25.40
2022-08-03T11:17:46.407Z,25.50
2022-08-03T11:20:50.398Z,25.50
2022-08-03T11:24:03.214Z,25.50
2022-08-03T11:26:28.716Z,25.50
2022-08-03T11:29:30.635Z,25.50
2022-08-03T11:31:59.973Z,25.50
2022-08-03T11:34:29.177Z,25.50
2022-08-03T11:37:21.554Z,25.40
2022-08-03T11:39:55.502Z,25.40
2022-08-03T11:42:25.107Z,25.40
2022-08-03T11:45:00.383Z,25.40
2022-08-03T11:47:31.516Z,25.40
2022-08-03T11:50:03.077Z,25.40
2022-08-03T11:52:40.227Z,25.50
2022-08-03T11:55:14.158Z,25.40
2022-08-03T11:59:17.464Z,25.40
2022-08-03T12:00:34.307Z,25.50
2022-08-03T12:03:07.048Z,25.40
2022-08-03T12:05:51.498Z,25.40
2022-08-03T12:08:32.937Z,25.40
2022-08-03T12:11:05.657Z,25.40
2022-08-03T12:14:45.122Z,25.40
2022-08-03T12:16:39.317Z,25.40
2022-08-03T12:19:09.308Z,25.40
2022-08-03T12:21:57.286Z,25.40
2022-08-03T12:24:29.595Z,25.40
2022-08-03T12:27:00.108Z,25.50
2022-08-03T12:29:29.720Z,25.40
2022-08-03T12:31:59.259Z,25.50
2022-08-03T12:34:48.041Z,25.50
2022-08-03T12:37:23.212Z,25.50
2022-08-03T12:40:03.081Z,25.50
2022-08-03T12:42:37.565Z,25.50
2022-08-03T12:45:24.250Z,25.50
2022-08-03T12:47:59.801Z,25.50
2022-08-03T12:50:32.265Z,25.50
2022-08-03T12:53:08.980Z,25.50
2022-08-03T12:56:04.229Z,25.50
2022-08-03T12:58:38.363Z,25.50
2022-08-03T13:01:10.766Z,25.50
2022-08-03T13:03:49.660Z,25.60
2022-08-03T13:06:27.882Z,25.60
2022-08-03T13:09:10.888Z,25.60
2022-08-03T13:11:58.061Z,25.60
2022-08-03T13:14:29.581Z,25.60
2022-08-03T13:16:58.999Z,25.60
2022-08-03T13:19:28.359Z,25.60
2022-08-03T13:22:04.264Z,25.70
2022-08-03T13:24:35.038Z,25.70
2022-08-03T13:28:03.679Z,25.70
2022-08-03T13:29:55.826Z,25.70
2022-08-03T13:32:25.393Z,25.80
2022-08-03T13:34:54.459Z,25.80
2022-08-03T13:37:23.926Z,25.80
2022-08-03T13:39:59.923Z,25.80
2022-08-03T13:42:38.936Z,25.90
2022-08-03T13:45:10.087Z,25.90
2022-08-03T13:47:39.393Z,25.90
2022-08-03T13:50:08.791Z,25.90
2022-08-03T13:52:38.350Z,25.90
2022-08-03T13:55:08.666Z,25.90
2022-08-03T13:58:04.847Z,25.90
2022-08-03T14:00:29.478Z,25.90
2022-08-03T14:03:09.574Z,25.90
2022-08-03T14:05:42.672Z,25.80
2022-08-03T14:08:12.351Z,25.80
2022-08-03T14:10:44.110Z,25.80
2022-08-03T14:13:17.485Z,25.80
2022-08-03T14:15:49.863Z,25.90
2022-08-03T14:18:27.633Z,25.80
2022-08-03T14:21:01.930Z,25.90
2022-08-03T14:23:35.592Z,25.90
2022-08-03T14:26:05.254Z,25.90
2022-08-03T14:28:34.719Z,25.90
2022-08-03T14:31:08.457Z,25.90
2022-08-03T14:33:54.498Z,25.90
2022-08-03T14:36:23.807Z,26.00
2022-08-03T14:38:53.273Z,26.00
2022-08-03T14:41:23.377Z,26.00
2022-08-03T14:44:01.354Z,26.00
2022-08-03T14:46:32.626Z,26.00
2022-08-03T14:50:30.829Z,26.00
2022-08-03T14:51:53.894Z,26.00
2022-08-03T14:54:24.382Z,26.00
2022-08-03T14:56:54.028Z,26.00
2022-08-03T14:59:23.447Z,26.00
2022-08-03T15:02:06.042Z,26.00
2022-08-03T15:04:38.286Z,26.00
2022-08-03T15:07:07.777Z,26.00
2022-08-03T15:09:37.296Z,26.00
2022-08-03T15:12:07.927Z,26.00
2022-08-03T15:14:37.913Z,26.00
2022-08-03T15:17:07.604Z,26.00
2022-08-03T15:20:00.510Z,26.00
2022-08-03T15:22:34.940Z,26.00
2022-08-03T15:26:29.291Z,26.00
2022-08-03T15:28:03.759Z,26.00
2022-08-03T15:30:37.237Z,26.00
2022-08-03T15:33:07.091Z,26.10
2022-08-03T15:35:36.243Z,26.10
2022-08-03T15:38:09.231Z,26.10
2022-08-03T15:40:39.153Z,26.10
2022-08-03T15:43:08.340Z,26.10
2022-08-03T15:45:38.518Z,26.10
2022-08-03T15:48:09.133Z,26.10
2022-08-03T15:50:38.244Z,26.20
2022-08-03T15:53:07.357Z,26.20
2022-08-03T15:55:36.519Z,26.20
2022-08-03T15:59:09.239Z,26.20
2022-08-03T16:00:54.736Z,26.20
2022-08-03T16:03:23.933Z,26.20
2022-08-03T16:05:53.224Z,26.20
2022-08-03T16:08:22.885Z,26.20
2022-08-03T16:10:52.008Z,26.20
2022-08-03T16:13:21.554Z,26.20
2022-08-03T16:16:10.651Z,26.20
2022-08-03T16:18:40.283Z,26.20
2022-08-03T16:21:09.499Z,26.20
2022-08-03T16:23:45.214Z,26.20
2022-08-03T16:26:16.594Z,26.20
2022-08-03T16:28:45.700Z,26.20
2022-08-03T16:31:14.762Z,26.20
2022-08-03T16:33:43.870Z,26.20
2022-08-03T16:36:12.989Z,26.20
2022-08-03T16:38:42.150Z,26.20
2022-08-03T16:41:11.290Z,26.10
2022-08-03T16:43:40.869Z,26.10
2022-08-03T16:46:09.942Z,26.10
2022-08-03T16:48:39.538Z,26.00
2022-08-03T16:51:08.607Z,26.00
2022-08-03T16:54:05.377Z,26.00
2022-08-03T16:56:27.059Z,25.90
2022-08-03T16:58:56.076Z,25.80
2022-08-03T17:01:29.228Z,25.80
2022-08-03T17:04:05.130Z,25.70
2022-08-03T17:06:45.093Z,25.50
2022-08-03T17:09:22.208Z,25.40
2022-08-03T17:11:53.348Z,25.30
2022-08-03T17:14:28.295Z,25.20
2022-08-03T17:17:03.812Z,25.10
2022-08-03T17:19:37.452Z,25.00
2022-08-03T17:22:15.990Z,24.90
2022-08-03T17:24:52.494Z,24.80
2022-08-03T17:28:48.299Z,24.80
2022-08-03T17:30:20.187Z,24.70
2022-08-03T17:32:56.743Z,24.70
2022-08-03T17:35:36.736Z,24.60
2022-08-03T17:38:13.738Z,24.60
2022-08-03T17:40:50.220Z,24.50
2022-08-03T17:44:13.678Z,24.50
2022-08-03T17:46:12.251Z,24.50
2022-08-03T17:48:42.693Z,24.40
2022-08-03T17:51:46.388Z,24.40
2022-08-03T17:54:37.923Z,24.40
2022-08-03T17:58:02.644Z,24.40
2022-08-03T18:00:51.518Z,24.40
2022-08-03T18:03:56.964Z,24.40
2022-08-03T18:06:32.644Z,24.40
2022-08-03T18:09:05.251Z,24.40
2022-08-03T18:12:00.004Z,24.40
2022-08-03T18:15:00.903Z,24.40
2022-08-03T18:17:55.159Z,24.40
2022-08-03T18:20:32.712Z,24.40
2022-08-03T18:23:25.538Z,24.40
2022-08-03T18:26:14.856Z,24.40
2022-08-03T18:28:44.786Z,24.40
2022-08-03T18:31:59.435Z,24.40
2022-08-03T18:34:16.801Z,24.40
2022-08-03T18:36:50.762Z,24.40
2022-08-03T18:39:20.419Z,24.40
2022-08-03T18:41:49.656Z,24.40
2022-08-03T18:44:46.563Z,24.40
2022-08-03T18:47:23.487Z,24.40
2022-08-03T18:50:26.218Z,24.40
2022-08-03T18:53:16.584Z,24.40
2022-08-03T18:56:01.850Z,24.50
2022-08-03T18:58:40.597Z,24.50
2022-08-03T19:02:00.793Z,24.50
2022-08-03T19:04:30.531Z,24.50
2022-08-03T19:07:11.191Z,24.50
2022-08-03T19:09:53.859Z,24.60
2022-08-03T19:12:39.965Z,24.60
2022-08-03T19:15:15.816Z,24.60
2022-08-03T19:17:54.172Z,24.60
2022-08-03T19:20:26.359Z,24.60
2022-08-03T19:22:57.663Z,24.60
2022-08-03T19:25:35.368Z,24.60
2022-08-03T19:28:07.316Z,24.60
2022-08-03T19:30:56.388Z,24.60
2022-08-03T19:33:30.069Z,24.60
2022-08-03T19:35:59.816Z,24.60
2022-08-03T19:38:29.945Z,24.60
2022-08-03T19:41:04.773Z,24.60
2022-08-03T19:43:53.248Z,24.60
2022-08-03T19:46:30.560Z,24.50
2022-08-03T19:49:10.670Z,24.50
2022-08-03T19:52:01.482Z,24.60
2022-08-03T19:54:53.239Z,24.60
2022-08-03T19:57:26.905Z,24.50
2022-08-03T19:59:57.762Z,24.50
2022-08-03T20:02:28.051Z,24.50
2022-08-03T20:05:00.441Z,24.50
2022-08-03T20:07:33.877Z,24.50
2022-08-03T20:10:07.021Z,24.50
2022-08-03T20:12:39.468Z,24.50
2022-08-03T20:15:10.185Z,24.50
2022-08-03T20:17:56.149Z,24.50
2022-08-03T20:20:35.748Z,24.50
2022-08-03T20:23:17.311Z,24.50
2022-08-03T20:25:58.652Z,24.50
2022-08-03T20:31:36.227Z,24.40
2022-08-03T20:34:06.661Z,24.40
2022-08-03T20:36:35.801Z,24.50
2022-08-03T20:39:07.663Z,24.40
2022-08-03T20:41:37.273Z,24.40
2022-08-03T20:44:10.604Z,24.50
2022-08-03T20:46:54.983Z,24.50
2022-08-03T20:49:29.707Z,24.50
2022-08-03T20:52:18.519Z,24.50
2022-08-03T20:54:49.048Z,24.50
2022-08-03T20:57:18.952Z,24.50
2022-08-03T20:59:51.483Z,24.50
2022-08-03T21:02:28.970Z,24.50
2022-08-03T21:05:03.042Z,24.50
2022-08-03T21:07:45.484Z,24.50
2022-08-03T21:10:17.165Z,24.50
2022-08-03T21:13:12.319Z,24.50
2022-08-03T21:13:16.824Z,24.50
2022-08-03T21:16:11.532Z,24.50
2022-08-03T21:18:47.276Z,24.50
2022-08-03T21:21:19.696Z,24.50
2022-08-03T21:23:53.685Z,24.50
2022-08-03T21:26:23.720Z,24.40
2022-08-03T21:28:56.345Z,24.50
2022-08-03T21:31:26.945Z,24.50
2022-08-03T21:33:59.183Z,24.40
2022-08-03T21:36:31.004Z,24.40
2022-08-03T21:39:00.974Z,24.40
2022-08-03T21:41:34.155Z,24.40
2022-08-03T21:44:04.070Z,24.40
2022-08-03T21:46:38.879Z,24.40
2022-08-03T21:50:04.711Z,24.40
2022-08-03T21:52:04.976Z,24.40
2022-08-03T21:54:45.259Z,24.40
2022-08-03T21:57:26.337Z,24.40
2022-08-03T21:59:58.443Z,24.40
2022-08-03T22:02:32.106Z,24.40
2022-08-03T22:05:04.851Z,24.40
2022-08-03T22:07:36.224Z,24.40
2022-08-03T22:10:08.043Z,24.40
2022-08-03T22:12:37.464Z,24.40
2022-08-03T22:15:10.235Z,24.40
2022-08-03T22:17:55.917Z,24.40
2022-08-03T22:20:27.001Z,24.40
2022-08-03T22:23:01.493Z,24.40
2022-08-03T22:25:33.419Z,24.40
2022-08-03T22:28:09.696Z,24.40
2022-08-03T22:30:40.336Z,24.40
2022-08-03T22:33:12.264Z,24.40
2022-08-03T22:35:47.810Z,24.40
2022-08-03T22:38:18.616Z,24.40
2022-08-03T22:40:51.867Z,24.40
2022-08-03T22:43:28.679Z,24.40
2022-08-03T22:46:10.338Z,24.40
2022-08-03T22:48:42.016Z,24.40
2022-08-03T22:51:11.725Z,24.40
2022-08-03T22:53:41.695Z,24.40
2022-08-03T22:56:11.222Z,24.40
2022-08-03T22:58:40.477Z,24.40
2022-08-03T23:01:12.808Z,24.40
2022-08-03T23:04:01.150Z,24.40
2022-08-03T23:06:43.639Z,24.40
2022-08-03T23:09:14.657Z,24.50
2022-08-03T23:11:46.333Z,24.40
2022-08-03T23:14:17.813Z,24.40
2022-08-03T23:16:48.368Z,24.50
2022-08-03T23:19:25.505Z,24.50
2022-08-03T23:22:03.483Z,24.50
2022-08-03T23:24:39.676Z,24.50
2022-08-03T23:27:10.787Z,24.50
2022-08-03T23:29:43.898Z,24.50
2022-08-03T23:32:15.905Z,24.50
2022-08-03T23:35:04.311Z,24.50
2022-08-03T23:37:34.764Z,24.50
2022-08-03T23:40:32.210Z,24.60
2022-08-03T23:43:03.169Z,24.60
2022-08-03T23:45:37.159Z,24.60
2022-08-03T23:48:06.108Z,24.70
2022-08-03T23:50:46.356Z,24.70
2022-08-03T23:53:19.698Z,24.70
2022-08-03T23:56:01.243Z,24.70
2022-08-03T23:58:46.206Z,24.80
